Time;durP1;ratioP1;P1;durP2;ratioP2;P2;SDS_P1;SDS_P2;PMS_P1;PMS_P2;Temp;Humidity;BMP_temperature;BMP_pressure;BME280_temperature;BME280_humidity;BME280_pressure;Samples;Min_cycle;Max_cycle;Signal;HPM_P1;HPM_P2
2022/09/19 00:00:28;;;;;;;1.00;1.00;;;;;;;;;;4929067;28;20258;-55
2022/09/19 00:02:55;;;;;;;1.00;1.00;;;;;;;;;;4930946;28;20661;-55
2022/09/19 00:05:20;;;;;;;1.13;1.13;;;;;;;;;;4934073;28;20311;-56
2022/09/19 00:07:49;;;;;;;1.10;1.10;;;;;;;;;;4958049;28;20272;-55
2022/09/19 00:10:15;;;;;;;1.00;1.00;;;;;;;;;;4938952;28;20251;-57
2022/09/19 00:12:41;;;;;;;1.10;1.10;;;;;;;;;;4927852;28;20703;-54
2022/09/19 00:15:07;;;;;;;1.00;1.00;;;;;;;;;;4933830;28;22694;-55
2022/09/19 00:17:33;;;;;;;1.10;1.10;;;;;;;;;;4923305;28;20297;-54
2022/09/19 00:19:59;;;;;;;1.20;1.20;;;;;;;;;;4942194;28;20224;-55
2022/09/19 00:22:25;;;;;;;1.07;1.07;;;;;;;;;;4938402;28;20237;-55
2022/09/19 00:24:51;;;;;;;0.90;0.90;;;;;;;;;;4930627;28;20223;-55
2022/09/19 00:27:21;;;;;;;0.90;0.90;;;;;;;;;;4933291;28;20227;-56
2022/09/19 00:29:47;;;;;;;1.10;1.10;;;;;;;;;;4942105;28;20325;-55
2022/09/19 00:32:15;;;;;;;1.10;1.10;;;;;;;;;;4954224;28;20244;-54
2022/09/19 00:34:42;;;;;;;1.03;1.03;;;;;;;;;;4945017;28;20221;-57
2022/09/19 00:37:08;;;;;;;1.00;1.00;;;;;;;;;;4953864;28;20231;-55
2022/09/19 00:39:33;;;;;;;1.00;1.00;;;;;;;;;;4919837;28;20425;-54
2022/09/19 00:41:59;;;;;;;1.13;1.13;;;;;;;;;;4938386;28;20285;-54
2022/09/19 00:44:25;;;;;;;1.17;1.17;;;;;;;;;;4929970;28;20230;-56
2022/09/19 00:47:18;;;;;;;1.40;1.40;;;;;;;;;;4941759;28;20309;-56
2022/09/19 00:49:45;;;;;;;1.10;1.10;;;;;;;;;;4932451;28;20239;-54
2022/09/19 00:52:13;;;;;;;1.20;1.20;;;;;;;;;;4918055;28;20227;-55
2022/09/19 00:54:40;;;;;;;1.00;1.00;;;;;;;;;;4916741;28;20219;-55
2022/09/19 00:57:06;;;;;;;1.10;1.10;;;;;;;;;;4925729;28;20525;-55
2022/09/19 00:59:34;;;;;;;1.10;1.10;;;;;;;;;;4917364;28;20218;-54
2022/09/19 01:02:02;;;;;;;1.20;1.20;;;;;;;;;;4937655;28;20230;-55
2022/09/19 01:04:30;;;;;;;1.07;1.07;;;;;;;;;;4933905;28;20571;-55
2022/09/19 01:06:59;;;;;;;1.00;1.00;;;;;;;;;;4941628;28;20234;-57
2022/09/19 01:09:28;;;;;;;1.00;1.00;;;;;;;;;;4919131;28;20242;-56
2022/09/19 01:12:04;;;;;;;1.30;1.30;;;;;;;;;;4937922;28;20442;-55
2022/09/19 01:14:30;;;;;;;1.10;1.10;;;;;;;;;;4939978;28;20404;-57
2022/09/19 01:17:05;;;;;;;0.97;0.97;;;;;;;;;;4943759;28;20376;-54
2022/09/19 01:19:50;;;;;;;1.13;1.13;;;;;;;;;;4924814;28;20254;-54
2022/09/19 01:22:27;;;;;;;1.10;1.10;;;;;;;;;;4941815;28;20234;-55
2022/09/19 01:24:58;;;;;;;0.90;0.90;;;;;;;;;;4941399;28;20282;-55
2022/09/19 01:27:33;;;;;;;1.00;1.00;;;;;;;;;;4933791;28;20215;-54
2022/09/19 01:29:59;;;;;;;1.10;1.10;;;;;;;;;;4932172;28;20731;-55
2022/09/19 01:32:27;;;;;;;1.00;1.00;;;;;;;;;;4933994;28;20231;-55
2022/09/19 01:34:54;;;;;;;1.10;1.10;;;;;;;;;;4932912;28;20654;-55
2022/09/19 01:37:22;;;;;;;1.00;1.00;;;;;;;;;;4924630;28;20220;-56
2022/09/19 01:39:49;;;;;;;1.30;1.30;;;;;;;;;;4931288;28;20617;-55
2022/09/19 01:42:15;;;;;;;1.30;1.30;;;;;;;;;;4943182;28;20315;-57
2022/09/19 01:44:41;;;;;;;1.10;1.10;;;;;;;;;;4932859;28;20250;-57
2022/09/19 01:47:26;;;;;;;1.13;1.13;;;;;;;;;;4927932;28;20852;-55
2022/09/19 01:49:55;;;;;;;0.97;0.97;;;;;;;;;;4935611;28;20257;-55
2022/09/19 01:52:48;;;;;;;1.10;1.10;;;;;;;;;;4918489;28;20230;-55
2022/09/19 01:55:30;;;;;;;1.20;1.20;;;;;;;;;;4937028;28;20796;-56
2022/09/19 01:58:04;;;;;;;1.03;1.03;;;;;;;;;;4928378;28;20704;-55
2022/09/19 02:00:30;;;;;;;1.10;1.10;;;;;;;;;;4923800;28;20306;-55
2022/09/19 02:03:01;;;;;;;0.90;0.90;;;;;;;;;;4901989;28;20244;-55
2022/09/19 02:05:27;;;;;;;1.00;1.00;;;;;;;;;;4939793;28;20312;-55
2022/09/19 02:08:15;;;;;;;0.90;0.90;;;;;;;;;;4927232;28;21182;-57
2022/09/19 02:10:49;;;;;;;1.00;1.00;;;;;;;;;;4928275;28;20237;-54
2022/09/19 02:13:15;;;;;;;1.00;1.00;;;;;;;;;;4919683;28;20222;-54
2022/09/19 02:15:46;;;;;;;1.10;1.10;;;;;;;;;;4929585;28;20243;-56
2022/09/19 02:18:14;;;;;;;1.10;1.10;;;;;;;;;;4944980;28;20244;-54
2022/09/19 02:20:41;;;;;;;1.27;1.27;;;;;;;;;;4936406;28;20470;-55
2022/09/19 02:23:11;;;;;;;1.20;1.20;;;;;;;;;;4926201;28;20226;-55
2022/09/19 02:25:38;;;;;;;1.10;1.10;;;;;;;;;;4904702;28;20759;-54
2022/09/19 02:28:11;;;;;;;1.10;1.10;;;;;;;;;;4914746;28;20262;-54
2022/09/19 02:30:37;;;;;;;1.00;1.00;;;;;;;;;;4909739;28;20295;-54
2022/09/19 02:33:06;;;;;;;0.90;0.90;;;;;;;;;;4934411;28;20225;-54
2022/09/19 02:35:46;;;;;;;1.10;1.10;;;;;;;;;;4933927;28;20265;-54
2022/09/19 02:38:33;;;;;;;1.10;1.10;;;;;;;;;;4941188;28;20276;-55
2022/09/19 02:41:02;;;;;;;1.00;1.00;;;;;;;;;;4933434;28;20305;-55
2022/09/19 02:43:46;;;;;;;1.20;1.20;;;;;;;;;;4929232;28;20234;-54
2022/09/19 02:46:32;;;;;;;1.40;1.40;;;;;;;;;;4909448;28;20321;-55
2022/09/19 02:49:09;;;;;;;1.10;1.10;;;;;;;;;;4915356;28;20246;-55
2022/09/19 02:51:36;;;;;;;1.00;1.00;;;;;;;;;;4946714;28;20242;-55
2022/09/19 02:54:09;;;;;;;1.13;1.13;;;;;;;;;;4945450;28;20238;-55
2022/09/19 02:56:35;;;;;;;1.20;1.20;;;;;;;;;;4930765;28;20274;-54
2022/09/19 02:59:06;;;;;;;1.10;1.10;;;;;;;;;;4929325;28;20353;-54
2022/09/19 03:01:32;;;;;;;1.30;1.30;;;;;;;;;;4925608;28;20322;-55
2022/09/19 03:04:14;;;;;;;1.10;1.10;;;;;;;;;;4920058;28;20239;-57
2022/09/19 03:06:59;;;;;;;1.10;1.10;;;;;;;;;;4932399;28;20227;-54
2022/09/19 03:09:27;;;;;;;1.10;1.10;;;;;;;;;;4944732;28;20291;-55
2022/09/19 03:12:02;;;;;;;1.00;1.00;;;;;;;;;;4933329;28;20632;-54
2022/09/19 03:14:30;;;;;;;1.10;1.10;;;;;;;;;;4936613;28;20215;-54
2022/09/19 03:16:56;;;;;;;1.10;1.10;;;;;;;;;;4929084;28;20348;-56
2022/09/19 03:19:23;;;;;;;1.00;1.00;;;;;;;;;;4942503;28;20222;-56
2022/09/19 03:21:51;;;;;;;1.10;1.10;;;;;;;;;;4926453;28;20760;-55
2022/09/19 03:24:17;;;;;;;0.93;0.93;;;;;;;;;;4942810;28;20695;-56
2022/09/19 03:26:44;;;;;;;1.10;1.10;;;;;;;;;;4950238;28;20728;-54
2022/09/19 03:29:11;;;;;;;1.10;1.10;;;;;;;;;;4940912;28;20255;-54
2022/09/19 03:31:37;;;;;;;1.07;1.07;;;;;;;;;;4932522;28;20227;-54
2022/09/19 03:34:03;;;;;;;1.20;1.20;;;;;;;;;;4945328;28;20250;-54
2022/09/19 03:36:29;;;;;;;1.10;1.10;;;;;;;;;;4936475;28;21193;-57
2022/09/19 03:38:55;;;;;;;1.10;1.10;;;;;;;;;;4934544;28;20216;-54
2022/09/19 03:41:22;;;;;;;1.10;1.10;;;;;;;;;;4936098;28;20224;-55
2022/09/19 03:43:48;;;;;;;1.20;1.20;;;;;;;;;;4949124;28;20289;-56
2022/09/19 03:46:15;;;;;;;1.20;1.20;;;;;;;;;;4941771;28;20261;-56
2022/09/19 03:48:44;;;;;;;1.20;1.20;;;;;;;;;;4940923;28;20731;-54
2022/09/19 03:51:10;;;;;;;1.10;1.10;;;;;;;;;;4941749;28;20245;-56
2022/09/19 03:53:36;;;;;;;1.10;1.10;;;;;;;;;;4935960;28;20883;-54
2022/09/19 03:56:02;;;;;;;1.20;1.20;;;;;;;;;;4940108;28;20231;-54
2022/09/19 03:58:30;;;;;;;1.00;1.00;;;;;;;;;;4933653;28;20234;-57
2022/09/19 04:00:56;;;;;;;1.00;1.00;;;;;;;;;;4936306;28;20238;-54
2022/09/19 04:03:23;;;;;;;0.93;0.93;;;;;;;;;;4948599;28;20584;-56
2022/09/19 04:05:50;;;;;;;1.13;1.13;;;;;;;;;;4946495;28;20226;-53
2022/09/19 04:08:16;;;;;;;1.30;1.30;;;;;;;;;;4933700;28;20226;-54
2022/09/19 04:10:42;;;;;;;1.00;1.00;;;;;;;;;;4926418;28;20338;-54
2022/09/19 04:13:09;;;;;;;1.10;1.10;;;;;;;;;;4958294;28;20228;-55
2022/09/19 04:15:35;;;;;;;1.07;1.07;;;;;;;;;;4920960;28;20248;-54
2022/09/19 04:18:03;;;;;;;1.10;1.10;;;;;;;;;;4908449;28;20990;-54
2022/09/19 04:20:30;;;;;;;1.20;1.20;;;;;;;;;;4925290;28;20753;-54
2022/09/19 04:23:00;;;;;;;1.07;1.07;;;;;;;;;;4895983;28;20235;-55
2022/09/19 04:25:31;;;;;;;1.17;1.17;;;;;;;;;;4894670;28;20231;-54
2022/09/19 04:28:00;;;;;;;1.20;1.20;;;;;;;;;;4915610;28;20656;-55
2022/09/19 04:30:26;;;;;;;1.27;1.27;;;;;;;;;;4927639;28;20732;-54
2022/09/19 04:32:52;;;;;;;1.13;1.13;;;;;;;;;;4936343;28;20302;-55
2022/09/19 04:35:19;;;;;;;1.23;1.23;;;;;;;;;;4934744;28;21130;-56
2022/09/19 04:37:45;;;;;;;1.13;1.13;;;;;;;;;;4918271;28;20239;-57
2022/09/19 04:40:11;;;;;;;1.10;1.10;;;;;;;;;;4919567;28;20323;-56
2022/09/19 04:42:37;;;;;;;1.10;1.10;;;;;;;;;;4927387;28;20222;-58
2022/09/19 04:45:03;;;;;;;1.00;1.00;;;;;;;;;;4935426;28;20285;-55
2022/09/19 04:47:32;;;;;;;1.00;1.00;;;;;;;;;;4927774;28;20253;-56
2022/09/19 04:49:59;;;;;;;0.97;0.97;;;;;;;;;;4933539;28;21815;-56
2022/09/19 04:52:25;;;;;;;1.00;1.00;;;;;;;;;;4926193;28;20215;-57
2022/09/19 04:54:54;;;;;;;0.90;0.90;;;;;;;;;;4936372;28;20275;-56
2022/09/19 04:57:20;;;;;;;1.00;1.00;;;;;;;;;;4938071;28;20219;-55
2022/09/19 04:59:46;;;;;;;1.00;1.00;;;;;;;;;;4937026;28;20679;-57
2022/09/19 05:02:12;;;;;;;0.90;0.90;;;;;;;;;;4936615;28;20284;-56
2022/09/19 05:04:41;;;;;;;1.03;1.03;;;;;;;;;;4942734;28;21390;-54
2022/09/19 05:07:08;;;;;;;1.00;1.00;;;;;;;;;;4929987;28;20666;-56
2022/09/19 05:09:34;;;;;;;0.90;0.90;;;;;;;;;;4923894;28;20821;-57
2022/09/19 05:12:00;;;;;;;0.90;0.90;;;;;;;;;;4918699;28;20222;-56
2022/09/19 05:14:26;;;;;;;1.00;1.00;;;;;;;;;;4940881;28;20729;-56
2022/09/19 05:16:52;;;;;;;0.90;0.90;;;;;;;;;;4926129;28;20230;-56
2022/09/19 05:19:21;;;;;;;1.00;1.00;;;;;;;;;;4942146;28;20605;-56
2022/09/19 05:21:48;;;;;;;1.00;1.00;;;;;;;;;;4943168;28;20348;-55
2022/09/19 05:24:16;;;;;;;1.00;1.00;;;;;;;;;;4945266;28;21291;-56
2022/09/19 05:26:42;;;;;;;0.90;0.90;;;;;;;;;;4937712;28;20247;-56
2022/09/19 05:29:08;;;;;;;0.80;0.80;;;;;;;;;;4940974;28;20309;-56
2022/09/19 05:31:35;;;;;;;0.90;0.90;;;;;;;;;;4938869;28;20517;-54
2022/09/19 05:34:01;;;;;;;0.90;0.90;;;;;;;;;;4942536;28;20309;-55
2022/09/19 05:36:28;;;;;;;0.87;0.87;;;;;;;;;;4930750;28;20229;-54
2022/09/19 05:38:54;;;;;;;0.83;0.83;;;;;;;;;;4942332;28;20338;-57
2022/09/19 05:41:20;;;;;;;0.90;0.90;;;;;;;;;;4939313;28;20263;-55
2022/09/19 05:43:46;;;;;;;0.90;0.90;;;;;;;;;;4944190;28;20231;-54
2022/09/19 05:46:12;;;;;;;0.90;0.90;;;;;;;;;;4944787;28;25822;-56
2022/09/19 05:48:38;;;;;;;0.90;0.90;;;;;;;;;;4949729;28;20234;-54
2022/09/19 05:51:04;;;;;;;0.90;0.90;;;;;;;;;;4946384;28;20230;-56
2022/09/19 05:56:14;;;;;;;0.80;0.80;;;;;;;;;;4947695;28;20810;-55
2022/09/19 05:58:40;;;;;;;0.90;0.90;;;;;;;;;;4953252;28;20222;-54
2022/09/19 06:01:06;;;;;;;1.00;1.00;;;;;;;;;;4953716;28;20218;-57
2022/09/19 06:03:33;;;;;;;0.80;0.80;;;;;;;;;;4943514;28;20642;-54
2022/09/19 06:05:59;;;;;;;0.80;0.80;;;;;;;;;;4947567;28;20223;-55
2022/09/19 06:08:25;;;;;;;0.90;0.90;;;;;;;;;;4948712;28;20321;-57
2022/09/19 06:10:51;;;;;;;0.90;0.90;;;;;;;;;;4942568;28;20383;-55
2022/09/19 06:13:18;;;;;;;0.80;0.80;;;;;;;;;;4947688;28;20238;-55
2022/09/19 06:15:44;;;;;;;0.80;0.80;;;;;;;;;;4943654;28;21264;-54
2022/09/19 06:18:09;;;;;;;1.00;1.00;;;;;;;;;;4947359;28;20233;-54
2022/09/19 06:20:36;;;;;;;0.93;0.93;;;;;;;;;;4938893;28;20597;-55
2022/09/19 06:23:03;;;;;;;0.80;0.80;;;;;;;;;;4918422;28;20222;-54
2022/09/19 06:25:29;;;;;;;0.93;0.93;;;;;;;;;;4941466;28;20254;-54
2022/09/19 06:27:56;;;;;;;0.90;0.90;;;;;;;;;;4947718;28;20275;-57
2022/09/19 06:30:22;;;;;;;0.90;0.90;;;;;;;;;;4948804;28;20249;-56
2022/09/19 06:32:49;;;;;;;1.00;1.00;;;;;;;;;;4958324;28;20222;-54
2022/09/19 06:35:15;;;;;;;1.03;1.03;;;;;;;;;;4948747;28;20275;-57
2022/09/19 06:37:41;;;;;;;0.83;0.83;;;;;;;;;;4941840;28;20787;-56
2022/09/19 06:40:08;;;;;;;0.80;0.80;;;;;;;;;;4944547;28;20238;-55
2022/09/19 06:42:34;;;;;;;0.90;0.90;;;;;;;;;;4946440;28;20247;-54
2022/09/19 06:45:00;;;;;;;0.80;0.80;;;;;;;;;;4938848;28;20992;-55
2022/09/19 06:47:26;;;;;;;1.03;1.03;;;;;;;;;;4941784;28;20596;-55
2022/09/19 06:49:52;;;;;;;1.00;1.00;;;;;;;;;;4946191;28;20234;-54
2022/09/19 06:52:19;;;;;;;0.80;0.80;;;;;;;;;;4936762;28;20219;-55
2022/09/19 06:54:45;;;;;;;0.90;0.90;;;;;;;;;;4938290;28;20226;-56
2022/09/19 06:57:11;;;;;;;0.97;0.97;;;;;;;;;;4940797;28;20227;-57
2022/09/19 06:59:38;;;;;;;0.90;0.90;;;;;;;;;;4942230;28;20700;-55
2022/09/19 07:02:04;;;;;;;0.87;0.87;;;;;;;;;;4932845;28;20227;-55
2022/09/19 07:04:30;;;;;;;0.70;0.70;;;;;;;;;;4941855;28;20819;-55
2022/09/19 07:06:56;;;;;;;0.97;0.97;;;;;;;;;;4950553;28;20227;-56
2022/09/19 07:09:22;;;;;;;0.70;0.70;;;;;;;;;;4947619;28;20227;-56
2022/09/19 07:11:48;;;;;;;0.97;0.97;;;;;;;;;;4952732;28;20720;-55
2022/09/19 07:14:14;;;;;;;0.80;0.80;;;;;;;;;;4940713;28;20226;-55
2022/09/19 07:16:40;;;;;;;0.93;0.93;;;;;;;;;;4944056;28;20226;-54
2022/09/19 07:19:06;;;;;;;0.80;0.80;;;;;;;;;;4947528;28;20254;-55
2022/09/19 07:21:32;;;;;;;0.90;0.90;;;;;;;;;;4958639;28;20981;-54
2022/09/19 07:24:01;;;;;;;0.80;0.80;;;;;;;;;;4936879;28;20226;-56
2022/09/19 07:26:27;;;;;;;0.90;0.90;;;;;;;;;;4934359;28;20243;-55
2022/09/19 07:28:53;;;;;;;0.90;0.90;;;;;;;;;;4944346;28;20685;-55
2022/09/19 07:31:19;;;;;;;0.80;0.80;;;;;;;;;;4917781;28;22547;-56
2022/09/19 07:33:45;;;;;;;0.80;0.80;;;;;;;;;;4945365;28;20228;-57
2022/09/19 07:36:11;;;;;;;0.90;0.90;;;;;;;;;;4938865;28;20314;-57
2022/09/19 07:38:37;;;;;;;0.70;0.70;;;;;;;;;;4943772;28;20254;-57
2022/09/19 07:41:03;;;;;;;0.90;0.90;;;;;;;;;;4944870;28;20342;-57
2022/09/19 07:43:29;;;;;;;0.60;0.60;;;;;;;;;;4941278;28;20230;-57
2022/09/19 07:45:55;;;;;;;0.80;0.80;;;;;;;;;;4950982;28;20820;-57
2022/09/19 07:48:21;;;;;;;0.80;0.80;;;;;;;;;;4939274;28;20319;-57
2022/09/19 07:50:47;;;;;;;0.80;0.80;;;;;;;;;;4939315;28;20241;-57
2022/09/19 07:53:17;;;;;;;0.90;0.90;;;;;;;;;;4951245;28;20225;-57
2022/09/19 07:55:44;;;;;;;0.80;0.80;;;;;;;;;;4952591;28;20265;-57
2022/09/19 07:58:11;;;;;;;0.80;0.80;;;;;;;;;;4938633;28;20286;-57
2022/09/19 08:00:37;;;;;;;1.00;1.00;;;;;;;;;;4944724;28;20263;-57
2022/09/19 08:03:04;;;;;;;0.80;0.80;;;;;;;;;;4938758;28;20227;-57
2022/09/19 08:05:34;;;;;;;0.80;0.80;;;;;;;;;;4929772;28;20225;-57
2022/09/19 08:08:00;;;;;;;0.70;0.70;;;;;;;;;;4943809;28;20223;-57
2022/09/19 08:10:26;;;;;;;0.90;0.90;;;;;;;;;;4949266;28;20231;-57
2022/09/19 08:12:52;;;;;;;0.60;0.60;;;;;;;;;;4947401;28;20318;-56
2022/09/19 08:15:19;;;;;;;0.80;0.80;;;;;;;;;;4950181;28;20220;-57
2022/09/19 08:17:57;;;;;;;0.80;0.80;;;;;;;;;;4938090;28;20686;-57
2022/09/19 08:20:24;;;;;;;0.70;0.70;;;;;;;;;;4948752;28;20234;-57
2022/09/19 08:22:50;;;;;;;0.90;0.90;;;;;;;;;;4941091;28;20304;-57
2022/09/19 08:25:16;;;;;;;0.80;0.80;;;;;;;;;;4941777;28;20222;-57
2022/09/19 08:27:45;;;;;;;0.90;0.90;;;;;;;;;;4943231;28;20299;-57
2022/09/19 08:30:11;;;;;;;0.80;0.80;;;;;;;;;;4938626;28;21012;-57
2022/09/19 08:32:37;;;;;;;0.90;0.90;;;;;;;;;;4943691;28;20232;-57
2022/09/19 08:35:04;;;;;;;0.90;0.90;;;;;;;;;;4937011;28;20800;-57
2022/09/19 08:37:31;;;;;;;1.10;1.10;;;;;;;;;;4933521;28;20304;-57
2022/09/19 08:40:15;;;;;;;0.90;0.90;;;;;;;;;;4947255;28;20600;-57
2022/09/19 08:43:00;;;;;;;1.10;1.10;;;;;;;;;;4937887;28;20228;-57
2022/09/19 08:45:36;;;;;;;1.10;1.10;;;;;;;;;;4934995;28;20707;-58
2022/09/19 08:48:02;;;;;;;1.20;1.20;;;;;;;;;;4931865;28;20230;-57
2022/09/19 08:50:30;;;;;;;1.30;1.30;;;;;;;;;;4928037;28;20235;-58
2022/09/19 08:52:57;;;;;;;1.30;1.30;;;;;;;;;;4925445;28;20656;-57
2022/09/19 08:55:23;;;;;;;1.60;1.60;;;;;;;;;;4941513;28;20239;-55
2022/09/19 08:57:51;;;;;;;1.40;1.40;;;;;;;;;;4949056;28;20222;-59
2022/09/19 09:00:18;;;;;;;1.50;1.50;;;;;;;;;;4919763;28;20235;-55
2022/09/19 09:02:47;;;;;;;1.60;1.60;;;;;;;;;;4915981;28;20306;-55
2022/09/19 09:05:14;;;;;;;1.43;1.43;;;;;;;;;;4939098;28;20232;-55
2022/09/19 09:07:52;;;;;;;1.70;1.60;;;;;;;;;;4944166;28;20231;-56
2022/09/19 09:10:29;;;;;;;1.47;1.47;;;;;;;;;;4946399;28;20317;-55
2022/09/19 09:13:00;;;;;;;1.50;1.50;;;;;;;;;;4940148;28;20239;-54
2022/09/19 09:15:29;;;;;;;1.53;1.53;;;;;;;;;;4938865;28;20635;-56
2022/09/19 09:18:00;;;;;;;1.40;1.40;;;;;;;;;;4947818;28;20237;-55
2022/09/19 09:20:38;;;;;;;1.50;1.50;;;;;;;;;;4941815;28;20823;-55
2022/09/19 09:23:04;;;;;;;1.40;1.40;;;;;;;;;;4953103;28;20222;-55
2022/09/19 09:25:30;;;;;;;1.40;1.40;;;;;;;;;;4950402;28;20691;-54
2022/09/19 09:28:06;;;;;;;1.57;1.57;;;;;;;;;;4942756;28;20236;-55
2022/09/19 09:30:33;;;;;;;1.30;1.30;;;;;;;;;;4934101;28;20280;-55
2022/09/19 09:33:07;;;;;;;1.50;1.50;;;;;;;;;;4939437;28;20222;-55
2022/09/19 09:35:34;;;;;;;1.50;1.50;;;;;;;;;;4930883;28;20721;-55
2022/09/19 09:38:08;;;;;;;1.60;1.60;;;;;;;;;;4939031;28;20337;-54
2022/09/19 09:43:24;;;;;;;1.50;1.50;;;;;;;;;;4943070;28;20317;-55
2022/09/19 09:45:51;;;;;;;1.50;1.50;;;;;;;;;;4947929;28;20693;-56
2022/09/19 09:48:32;;;;;;;1.60;1.60;;;;;;;;;;4934714;28;20548;-56
2022/09/19 09:51:05;;;;;;;1.97;1.87;;;;;;;;;;4916278;28;20239;-57
2022/09/19 09:53:48;;;;;;;1.90;1.80;;;;;;;;;;4923346;28;20230;-54
2022/09/19 09:56:21;;;;;;;1.83;1.73;;;;;;;;;;4913230;28;20790;-55
2022/09/19 09:58:53;;;;;;;1.63;1.63;;;;;;;;;;4928639;28;20228;-57
2022/09/19 10:04:36;;;;;;;1.67;1.67;;;;;;;;;;4928327;28;20319;-57
2022/09/19 10:07:12;;;;;;;1.67;1.67;;;;;;;;;;4908577;28;22426;-55
2022/09/19 10:09:38;;;;;;;1.80;1.70;;;;;;;;;;4926091;28;20242;-56
2022/09/19 10:12:10;;;;;;;1.67;1.63;;;;;;;;;;4937619;28;20229;-56
2022/09/19 10:14:39;;;;;;;1.67;1.67;;;;;;;;;;4929816;28;20225;-55
2022/09/19 10:17:05;;;;;;;1.33;1.33;;;;;;;;;;4920457;28;20225;-56
2022/09/19 10:19:36;;;;;;;0.85;0.85;;;;;;;;;;4928252;28;20993;-54
2022/09/19 10:22:02;;;;;;;1.30;1.30;;;;;;;;;;4931731;28;20709;-55
2022/09/19 10:24:50;;;;;;;1.17;1.17;;;;;;;;;;4919364;28;20226;-55
2022/09/19 10:27:23;;;;;;;1.60;1.60;;;;;;;;;;4930889;28;20230;-56
2022/09/19 10:29:56;;;;;;;1.10;1.10;;;;;;;;;;4930424;28;20258;-57
2022/09/19 10:32:24;;;;;;;0.90;0.90;;;;;;;;;;4914390;28;20230;-56
2022/09/19 10:34:50;;;;;;;1.30;1.30;;;;;;;;;;4920660;28;20742;-56
2022/09/19 10:37:18;;;;;;;1.10;1.10;;;;;;;;;;4936208;28;20322;-56
2022/09/19 10:39:46;;;;;;;1.00;1.00;;;;;;;;;;4917399;28;20598;-56
2022/09/19 10:42:31;;;;;;;1.30;1.30;;;;;;;;;;4927167;28;20248;-56
2022/09/19 10:45:00;;;;;;;1.20;1.20;;;;;;;;;;4923628;28;20219;-56
2022/09/19 10:47:28;;;;;;;1.00;1.00;;;;;;;;;;4923701;28;20225;-57
2022/09/19 10:49:53;;;;;;;0.98;0.98;;;;;;;;;;4897395;28;20227;-57
2022/09/19 10:52:20;;;;;;;0.80;0.80;;;;;;;;;;4939113;28;20231;-56
2022/09/19 10:54:47;;;;;;;0.82;0.82;;;;;;;;;;4940219;28;20233;-55
2022/09/19 10:57:34;;;;;;;0.90;0.90;;;;;;;;;;4909422;28;20261;-56
2022/09/19 11:00:01;;;;;;;0.80;0.80;;;;;;;;;;4922772;28;20709;-55
2022/09/19 11:02:30;;;;;;;0.80;0.80;;;;;;;;;;4931543;28;20405;-57
2022/09/19 11:05:00;;;;;;;0.80;0.80;;;;;;;;;;4927303;28;20302;-56
2022/09/19 11:07:29;;;;;;;0.82;0.82;;;;;;;;;;4929264;28;20602;-55
2022/09/19 11:09:59;;;;;;;0.80;0.80;;;;;;;;;;4927585;28;20999;-55
2022/09/19 11:12:25;;;;;;;0.95;0.95;;;;;;;;;;4924148;28;20380;-54
2022/09/19 11:14:55;;;;;;;1.42;1.42;;;;;;;;;;4928118;28;20334;-55
2022/09/19 11:17:21;;;;;;;1.40;1.40;;;;;;;;;;4929654;28;21216;-56
2022/09/19 11:19:49;;;;;;;1.40;1.40;;;;;;;;;;4923500;28;20222;-55
2022/09/19 11:22:34;;;;;;;1.40;1.40;;;;;;;;;;4903874;28;20238;-56
2022/09/19 11:25:11;;;;;;;1.38;1.38;;;;;;;;;;4927428;28;20291;-57
2022/09/19 11:27:37;;;;;;;1.33;1.33;;;;;;;;;;4917657;28;20226;-55
2022/09/19 11:30:36;;;;;;;1.33;1.33;;;;;;;;;;4925516;28;20267;-56
2022/09/19 11:33:05;;;;;;;1.40;1.40;;;;;;;;;;4915691;28;20309;-56
2022/09/19 11:35:31;;;;;;;1.30;1.30;;;;;;;;;;4918523;28;20318;-57
2022/09/19 11:38:00;;;;;;;0.80;0.80;;;;;;;;;;4937879;28;20227;-56
2022/09/19 11:40:31;;;;;;;0.80;0.80;;;;;;;;;;4938571;28;20293;-55
2022/09/19 11:43:01;;;;;;;0.80;0.80;;;;;;;;;;4941645;28;20438;-55
2022/09/19 11:45:28;;;;;;;0.90;0.90;;;;;;;;;;4913042;28;20756;-57
2022/09/19 11:47:56;;;;;;;0.70;0.70;;;;;;;;;;4946105;28;20309;-56
2022/09/19 11:50:36;;;;;;;0.80;0.80;;;;;;;;;;4944335;28;20326;-57
2022/09/19 11:53:06;;;;;;;0.70;0.70;;;;;;;;;;4942408;28;20717;-56
2022/09/19 11:55:35;;;;;;;0.70;0.70;;;;;;;;;;4953209;28;22294;-58
2022/09/19 11:58:10;;;;;;;0.77;0.77;;;;;;;;;;4943347;28;20237;-56
2022/09/19 12:00:52;;;;;;;0.80;0.80;;;;;;;;;;4944558;28;20282;-57
2022/09/19 12:03:23;;;;;;;0.63;0.63;;;;;;;;;;4957520;28;20230;-57
2022/09/19 12:06:01;;;;;;;0.70;0.70;;;;;;;;;;4953287;28;21920;-56
2022/09/19 12:08:29;;;;;;;0.70;0.70;;;;;;;;;;4955141;28;20223;-56
2022/09/19 12:10:55;;;;;;;0.60;0.60;;;;;;;;;;4929195;28;20242;-56
2022/09/19 12:13:46;;;;;;;0.60;0.60;;;;;;;;;;4948838;28;20248;-56
2022/09/19 12:16:25;;;;;;;0.68;0.68;;;;;;;;;;4949958;28;20240;-57
2022/09/19 12:19:04;;;;;;;0.60;0.60;;;;;;;;;;4944615;28;20607;-57
2022/09/19 12:21:33;;;;;;;0.80;0.80;;;;;;;;;;4953165;28;20238;-58
2022/09/19 12:26:53;;;;;;;0.80;0.80;;;;;;;;;;4925899;28;20247;-56
2022/09/19 12:29:23;;;;;;;0.88;0.88;;;;;;;;;;4936008;28;20238;-58
2022/09/19 12:31:55;;;;;;;1.00;1.00;;;;;;;;;;4949398;28;20231;-58
2022/09/19 12:34:29;;;;;;;0.90;0.90;;;;;;;;;;4945700;28;20258;-58
2022/09/19 12:37:15;;;;;;;1.02;1.02;;;;;;;;;;4936345;28;20245;-59
2022/09/19 12:39:42;;;;;;;1.00;1.00;;;;;;;;;;4943671;28;20673;-59
2022/09/19 12:42:10;;;;;;;0.90;0.90;;;;;;;;;;4941894;28;20842;-59
2022/09/19 12:44:42;;;;;;;0.98;0.98;;;;;;;;;;4943965;28;20261;-59
2022/09/19 12:47:08;;;;;;;1.00;1.00;;;;;;;;;;4954036;28;20274;-59
2022/09/19 12:49:40;;;;;;;1.05;1.05;;;;;;;;;;4942404;28;20636;-59
2022/09/19 12:52:12;;;;;;;1.00;1.00;;;;;;;;;;4947288;28;20226;-60
2022/09/19 12:54:44;;;;;;;1.00;1.00;;;;;;;;;;4948587;28;20302;-59
2022/09/19 12:57:18;;;;;;;0.90;0.90;;;;;;;;;;4941043;28;20298;-57
2022/09/19 12:59:47;;;;;;;1.20;1.20;;;;;;;;;;4956853;28;20230;-57
2022/09/19 13:02:15;;;;;;;1.10;1.10;;;;;;;;;;4940820;28;20236;-59
2022/09/19 13:04:52;;;;;;;1.10;1.10;;;;;;;;;;4945704;28;20230;-59
2022/09/19 13:07:45;;;;;;;1.20;1.20;;;;;;;;;;4947424;28;20301;-59
2022/09/19 13:10:14;;;;;;;1.00;1.00;;;;;;;;;;4942807;28;20601;-59
2022/09/19 13:12:43;;;;;;;1.40;1.40;;;;;;;;;;4947103;28;20722;-58
2022/09/19 13:15:30;;;;;;;1.90;1.80;;;;;;;;;;4956673;28;20275;-58
2022/09/19 13:23:32;;;;;;;1.47;1.47;;;;;;;;;;4931973;28;20241;-57
2022/09/19 13:26:24;;;;;;;1.83;1.73;;;;;;;;;;4933106;28;20236;-57
2022/09/19 13:28:54;;;;;;;1.33;1.33;;;;;;;;;;4947834;28;20253;-58
2022/09/19 13:31:21;;;;;;;1.60;1.60;;;;;;;;;;4922531;28;20354;-58
2022/09/19 13:33:48;;;;;;;1.40;1.40;;;;;;;;;;4918347;28;20248;-58
2022/09/19 13:36:18;;;;;;;1.90;1.80;;;;;;;;;;4928506;28;20220;-59
2022/09/19 13:38:48;;;;;;;1.90;1.80;;;;;;;;;;4936814;28;20243;-59
2022/09/19 13:41:33;;;;;;;1.73;1.70;;;;;;;;;;4911964;28;20246;-58
2022/09/19 13:44:08;;;;;;;1.60;1.60;;;;;;;;;;4957255;28;20316;-57
2022/09/19 13:46:52;;;;;;;1.40;1.40;;;;;;;;;;4945865;28;22354;-57
2022/09/19 13:49:31;;;;;;;1.57;1.57;;;;;;;;;;4940264;28;20585;-58
2022/09/19 13:52:04;;;;;;;1.50;1.50;;;;;;;;;;4928605;28;20376;-57
2022/09/19 13:54:35;;;;;;;1.50;1.50;;;;;;;;;;4943134;28;20281;-57
2022/09/19 13:57:02;;;;;;;1.57;1.57;;;;;;;;;;4944598;28;20642;-58
2022/09/19 13:59:31;;;;;;;1.40;1.40;;;;;;;;;;4950464;28;20260;-58
2022/09/19 14:01:57;;;;;;;1.47;1.47;;;;;;;;;;4941229;28;20232;-57
2022/09/19 14:07:13;;;;;;;1.40;1.40;;;;;;;;;;4945230;28;20652;-57
2022/09/19 14:09:42;;;;;;;1.30;1.30;;;;;;;;;;4926073;28;20223;-57
2022/09/19 14:12:28;;;;;;;1.43;1.43;;;;;;;;;;4932208;28;20237;-58
2022/09/19 14:14:54;;;;;;;1.40;1.40;;;;;;;;;;4942700;28;20211;-58
2022/09/19 14:17:20;;;;;;;1.50;1.50;;;;;;;;;;4933066;28;20233;-58
2022/09/19 14:19:48;;;;;;;1.40;1.40;;;;;;;;;;4944908;28;20245;-57
2022/09/19 14:22:35;;;;;;;1.30;1.30;;;;;;;;;;4948020;28;20223;-57
2022/09/19 14:25:04;;;;;;;1.43;1.43;;;;;;;;;;4937460;28;20227;-58
2022/09/19 14:27:37;;;;;;;1.40;1.40;;;;;;;;;;4946155;28;20227;-56
2022/09/19 14:30:06;;;;;;;1.30;1.30;;;;;;;;;;4920700;28;20746;-57
2022/09/19 14:32:35;;;;;;;1.53;1.53;;;;;;;;;;4918401;28;22297;-58
2022/09/19 14:35:20;;;;;;;1.40;1.40;;;;;;;;;;4913656;28;20226;-59
2022/09/19 14:38:05;;;;;;;1.40;1.40;;;;;;;;;;4903379;28;20233;-57
2022/09/19 14:40:36;;;;;;;1.60;1.60;;;;;;;;;;4920708;28;20269;-57
2022/09/19 14:43:21;;;;;;;1.80;1.70;;;;;;;;;;4939033;28;20233;-59
2022/09/19 14:46:01;;;;;;;1.57;1.57;;;;;;;;;;4927552;28;20222;-58
2022/09/19 14:48:50;;;;;;;1.63;1.63;;;;;;;;;;4927553;28;20225;-57
2022/09/19 14:51:17;;;;;;;1.87;1.77;;;;;;;;;;4929912;28;20229;-56
2022/09/19 14:53:42;;;;;;;1.80;1.70;;;;;;;;;;4940771;28;20231;-57
2022/09/19 14:56:12;;;;;;;1.47;1.47;;;;;;;;;;4924620;28;20235;-58
2022/09/19 14:58:39;;;;;;;1.60;1.60;;;;;;;;;;4947596;28;20242;-57
2022/09/19 15:01:27;;;;;;;1.50;1.50;;;;;;;;;;4928391;28;21539;-57
2022/09/19 15:04:00;;;;;;;1.40;1.40;;;;;;;;;;4942000;28;20783;-57
2022/09/19 15:06:29;;;;;;;1.90;1.80;;;;;;;;;;4942525;28;20218;-58
2022/09/19 15:08:56;;;;;;;1.40;1.40;;;;;;;;;;4942845;28;20888;-57
2022/09/19 15:11:22;;;;;;;1.40;1.40;;;;;;;;;;4938824;28;20260;-58
2022/09/19 15:13:49;;;;;;;1.40;1.40;;;;;;;;;;4944422;28;20284;-57
2022/09/19 15:16:16;;;;;;;1.50;1.50;;;;;;;;;;4940300;28;20230;-58
2022/09/19 15:18:45;;;;;;;1.37;1.37;;;;;;;;;;4930895;28;20211;-58